sensor_id;sensor_type;location;lat;lon;timestamp;P1;P2;P0
55754;PMS5003;41674;52.290;-1.474;2023-09-12T00:02:20;4;4;
55754;PMS5003;41674;52.290;-1.474;2023-09-12T00:04:49;4;4;
55754;PMS5003;41674;52.290;-1.474;2023-09-12T00:07:19;3;3;
55754;PMS5003;41674;52.290;-1.474;2023-09-12T00:09:49;5;4;
55754;PMS5003;41674;52.290;-1.474;2023-09-12T00:12:21;4;4;
55754;PMS5003;41674;52.290;-1.474;2023-09-12T00:14:47;4;4;
55754;PMS5003;41674;52.290;-1.474;2023-09-12T00:17:17;6;5;
55754;PMS5003;41674;52.290;-1.474;2023-09-12T00:19:47;8;5;
55754;PMS5003;41674;52.290;-1.474;2023-09-12T00:22:16;3;3;
55754;PMS5003;41674;52.290;-1.474;2023-09-12T00:24:46;3;3;
55754;PMS5003;41674;52.290;-1.474;2023-09-12T00:27:15;5;3;
55754;PMS5003;41674;52.290;-1.474;2023-09-12T00:29:45;4;4;
55754;PMS5003;41674;52.290;-1.474;2023-09-12T00:32:14;6;5;
55754;PMS5003;41674;52.290;-1.474;2023-09-12T00:34:44;8;4;
55754;PMS5003;41674;52.290;-1.474;2023-09-12T00:37:13;5;4;
55754;PMS5003;41674;52.290;-1.474;2023-09-12T00:39:43;5;5;
55754;PMS5003;41674;52.290;-1.474;2023-09-12T00:42:12;5;5;
55754;PMS5003;41674;52.290;-1.474;2023-09-12T00:44:42;6;4;
55754;PMS5003;41674;52.290;-1.474;2023-09-12T00:47:11;4;3;
55754;PMS5003;41674;52.290;-1.474;2023-09-12T00:49:41;5;4;
55754;PMS5003;41674;52.290;-1.474;2023-09-12T00:52:10;6;5;
55754;PMS5003;41674;52.290;-1.474;2023-09-12T00:54:40;5;5;
55754;PMS5003;41674;52.290;-1.474;2023-09-12T00:57:09;3;3;
55754;PMS5003;41674;52.290;-1.474;2023-09-12T00:59:39;7;4;
55754;PMS5003;41674;52.290;-1.474;2023-09-12T01:02:08;6;5;
55754;PMS5003;41674;52.290;-1.474;2023-09-12T01:04:38;5;5;
55754;PMS5003;41674;52.290;-1.474;2023-09-12T01:07:07;5;5;
55754;PMS5003;41674;52.290;-1.474;2023-09-12T01:09:37;4;4;
55754;PMS5003;41674;52.290;-1.474;2023-09-12T01:12:07;7;5;
55754;PMS5003;41674;52.290;-1.474;2023-09-12T01:14:36;8;6;
55754;PMS5003;41674;52.290;-1.474;2023-09-12T01:17:06;6;6;
55754;PMS5003;41674;52.290;-1.474;2023-09-12T01:19:35;5;4;
55754;PMS5003;41674;52.290;-1.474;2023-09-12T01:24:41;5;5;
55754;PMS5003;41674;52.290;-1.474;2023-09-12T01:27:14;7;7;
55754;PMS5003;41674;52.290;-1.474;2023-09-12T01:29:33;6;6;
55754;PMS5003;41674;52.290;-1.474;2023-09-12T01:32:03;8;5;
55754;PMS5003;41674;52.290;-1.474;2023-09-12T01:34:32;4;4;
55754;PMS5003;41674;52.290;-1.474;2023-09-12T01:37:02;6;6;
55754;PMS5003;41674;52.290;-1.474;2023-09-12T01:39:31;5;5;
55754;PMS5003;41674;52.290;-1.474;2023-09-12T01:42:01;6;4;
55754;PMS5003;41674;52.290;-1.474;2023-09-12T01:44:30;7;4;
55754;PMS5003;41674;52.290;-1.474;2023-09-12T01:47:00;5;4;
55754;PMS5003;41674;52.290;-1.474;2023-09-12T01:49:29;6;5;
55754;PMS5003;41674;52.290;-1.474;2023-09-12T01:51:59;6;6;
55754;PMS5003;41674;52.290;-1.474;2023-09-12T01:54:29;6;6;
55754;PMS5003;41674;52.290;-1.474;2023-09-12T01:56:58;4;4;
55754;PMS5003;41674;52.290;-1.474;2023-09-12T01:59:28;8;6;
55754;PMS5003;41674;52.290;-1.474;2023-09-12T02:01:57;5;5;
55754;PMS5003;41674;52.290;-1.474;2023-09-12T02:04:26;7;6;
55754;PMS5003;41674;52.290;-1.474;2023-09-12T02:06:56;6;6;
55754;PMS5003;41674;52.290;-1.474;2023-09-12T02:09:25;7;7;
55754;PMS5003;41674;52.290;-1.474;2023-09-12T02:11:55;5;4;
55754;PMS5003;41674;52.290;-1.474;2023-09-12T02:14:24;5;5;
55754;PMS5003;41674;52.290;-1.474;2023-09-12T02:16:54;6;5;
55754;PMS5003;41674;52.290;-1.474;2023-09-12T02:19:23;6;6;
55754;PMS5003;41674;52.290;-1.474;2023-09-12T02:21:53;5;4;
55754;PMS5003;41674;52.290;-1.474;2023-09-12T02:24:22;8;6;
55754;PMS5003;41674;52.290;-1.474;2023-09-12T02:26:52;7;6;
55754;PMS5003;41674;52.290;-1.474;2023-09-12T02:29:22;8;7;
55754;PMS5003;41674;52.290;-1.474;2023-09-12T02:31:51;9;7;
55754;PMS5003;41674;52.290;-1.474;2023-09-12T02:34:21;8;8;
55754;PMS5003;41674;52.290;-1.474;2023-09-12T02:36:51;7;7;
55754;PMS5003;41674;52.290;-1.474;2023-09-12T02:39:20;6;6;
55754;PMS5003;41674;52.290;-1.474;2023-09-12T02:41:50;8;7;
55754;PMS5003;41674;52.290;-1.474;2023-09-12T02:44:19;6;6;
55754;PMS5003;41674;52.290;-1.474;2023-09-12T02:46:50;8;8;
55754;PMS5003;41674;52.290;-1.474;2023-09-12T02:49:18;5;5;
55754;PMS5003;41674;52.290;-1.474;2023-09-12T02:51:48;5;5;
55754;PMS5003;41674;52.290;-1.474;2023-09-12T02:54:17;8;8;
55754;PMS5003;41674;52.290;-1.474;2023-09-12T02:56:47;7;7;
55754;PMS5003;41674;52.290;-1.474;2023-09-12T02:59:16;9;9;
55754;PMS5003;41674;52.290;-1.474;2023-09-12T03:01:45;8;7;
55754;PMS5003;41674;52.290;-1.474;2023-09-12T03:04:15;6;6;
55754;PMS5003;41674;52.290;-1.474;2023-09-12T03:06:44;9;7;
55754;PMS5003;41674;52.290;-1.474;2023-09-12T03:09:14;9;7;
55754;PMS5003;41674;52.290;-1.474;2023-09-12T03:11:43;7;7;
55754;PMS5003;41674;52.290;-1.474;2023-09-12T03:14:13;8;7;
55754;PMS5003;41674;52.290;-1.474;2023-09-12T03:16:42;7;5;
55754;PMS5003;41674;52.290;-1.474;2023-09-12T03:19:12;6;6;
55754;PMS5003;41674;52.290;-1.474;2023-09-12T03:21:41;5;5;
55754;PMS5003;41674;52.290;-1.474;2023-09-12T03:24:11;7;7;
55754;PMS5003;41674;52.290;-1.474;2023-09-12T03:26:40;8;8;
55754;PMS5003;41674;52.290;-1.474;2023-09-12T03:29:10;8;8;
55754;PMS5003;41674;52.290;-1.474;2023-09-12T03:31:39;9;9;
55754;PMS5003;41674;52.290;-1.474;2023-09-12T03:34:09;7;7;
55754;PMS5003;41674;52.290;-1.474;2023-09-12T03:36:38;7;7;
55754;PMS5003;41674;52.290;-1.474;2023-09-12T03:39:08;9;9;
55754;PMS5003;41674;52.290;-1.474;2023-09-12T03:41:37;10;9;
55754;PMS5003;41674;52.290;-1.474;2023-09-12T03:44:07;9;8;
55754;PMS5003;41674;52.290;-1.474;2023-09-12T03:46:36;10;8;
55754;PMS5003;41674;52.290;-1.474;2023-09-12T03:49:06;12;10;
55754;PMS5003;41674;52.290;-1.474;2023-09-12T03:51:35;10;10;
55754;PMS5003;41674;52.290;-1.474;2023-09-12T03:54:05;9;9;
55754;PMS5003;41674;52.290;-1.474;2023-09-12T03:56:34;15;11;
55754;PMS5003;41674;52.290;-1.474;2023-09-12T03:59:04;13;11;
55754;PMS5003;41674;52.290;-1.474;2023-09-12T04:01:33;8;8;
55754;PMS5003;41674;52.290;-1.474;2023-09-12T04:04:03;11;11;
55754;PMS5003;41674;52.290;-1.474;2023-09-12T04:06:32;11;9;
55754;PMS5003;41674;52.290;-1.474;2023-09-12T04:09:01;10;10;
55754;PMS5003;41674;52.290;-1.474;2023-09-12T04:11:31;10;9;
55754;PMS5003;41674;52.290;-1.474;2023-09-12T04:14:00;10;10;
55754;PMS5003;41674;52.290;-1.474;2023-09-12T04:18:59;9;8;
55754;PMS5003;41674;52.290;-1.474;2023-09-12T04:21:29;12;10;
55754;PMS5003;41674;52.290;-1.474;2023-09-12T04:23:59;8;8;
55754;PMS5003;41674;52.290;-1.474;2023-09-12T04:26:28;9;9;
55754;PMS5003;41674;52.290;-1.474;2023-09-12T04:28:58;8;6;
55754;PMS5003;41674;52.290;-1.474;2023-09-12T04:31:27;9;7;
55754;PMS5003;41674;52.290;-1.474;2023-09-12T04:33:56;10;7;
55754;PMS5003;41674;52.290;-1.474;2023-09-12T04:36:26;12;11;
55754;PMS5003;41674;52.290;-1.474;2023-09-12T04:38:55;11;11;
55754;PMS5003;41674;52.290;-1.474;2023-09-12T04:41:25;12;11;
55754;PMS5003;41674;52.290;-1.474;2023-09-12T04:43:54;9;9;
55754;PMS5003;41674;52.290;-1.474;2023-09-12T04:46:24;9;9;
55754;PMS5003;41674;52.290;-1.474;2023-09-12T04:48:53;15;14;
55754;PMS5003;41674;52.290;-1.474;2023-09-12T04:51:22;12;11;
55754;PMS5003;41674;52.290;-1.474;2023-09-12T04:53:52;14;13;
55754;PMS5003;41674;52.290;-1.474;2023-09-12T04:56:21;14;9;
55754;PMS5003;41674;52.290;-1.474;2023-09-12T04:58:51;12;11;
55754;PMS5003;41674;52.290;-1.474;2023-09-12T05:01:20;11;11;
55754;PMS5003;41674;52.290;-1.474;2023-09-12T05:03:50;11;10;
55754;PMS5003;41674;52.290;-1.474;2023-09-12T05:06:19;10;9;
55754;PMS5003;41674;52.290;-1.474;2023-09-12T05:08:49;8;7;
55754;PMS5003;41674;52.290;-1.474;2023-09-12T05:11:18;14;12;
55754;PMS5003;41674;52.290;-1.474;2023-09-12T05:13:48;8;8;
55754;PMS5003;41674;52.290;-1.474;2023-09-12T05:16:17;10;10;
55754;PMS5003;41674;52.290;-1.474;2023-09-12T05:18:46;9;9;
55754;PMS5003;41674;52.290;-1.474;2023-09-12T05:21:15;8;8;
55754;PMS5003;41674;52.290;-1.474;2023-09-12T05:23:45;12;10;
55754;PMS5003;41674;52.290;-1.474;2023-09-12T05:26:14;10;10;
55754;PMS5003;41674;52.290;-1.474;2023-09-12T05:28:44;13;10;
55754;PMS5003;41674;52.290;-1.474;2023-09-12T05:31:13;11;10;
55754;PMS5003;41674;52.290;-1.474;2023-09-12T05:33:43;7;7;
55754;PMS5003;41674;52.290;-1.474;2023-09-12T05:36:12;11;10;
55754;PMS5003;41674;52.290;-1.474;2023-09-12T05:38:42;12;11;
55754;PMS5003;41674;52.290;-1.474;2023-09-12T05:41:11;14;11;
55754;PMS5003;41674;52.290;-1.474;2023-09-12T05:43:40;7;7;
55754;PMS5003;41674;52.290;-1.474;2023-09-12T05:46:10;8;8;
55754;PMS5003;41674;52.290;-1.474;2023-09-12T05:48:39;11;10;
55754;PMS5003;41674;52.290;-1.474;2023-09-12T05:51:09;11;10;
55754;PMS5003;41674;52.290;-1.474;2023-09-12T05:53:38;8;7;
55754;PMS5003;41674;52.290;-1.474;2023-09-12T05:56:08;12;9;
55754;PMS5003;41674;52.290;-1.474;2023-09-12T06:01:07;14;11;
55754;PMS5003;41674;52.290;-1.474;2023-09-12T06:03:36;13;12;
55754;PMS5003;41674;52.290;-1.474;2023-09-12T06:06:06;12;11;
55754;PMS5003;41674;52.290;-1.474;2023-09-12T06:08:35;11;8;
55754;PMS5003;41674;52.290;-1.474;2023-09-12T06:11:04;13;11;
55754;PMS5003;41674;52.290;-1.474;2023-09-12T06:13:34;13;12;
55754;PMS5003;41674;52.290;-1.474;2023-09-12T06:16:04;14;11;
55754;PMS5003;41674;52.290;-1.474;2023-09-12T06:18:32;11;11;
55754;PMS5003;41674;52.290;-1.474;2023-09-12T06:21:02;11;11;
55754;PMS5003;41674;52.290;-1.474;2023-09-12T06:23:31;12;11;
55754;PMS5003;41674;52.290;-1.474;2023-09-12T06:26:01;10;10;
55754;PMS5003;41674;52.290;-1.474;2023-09-12T06:31:00;11;11;
55754;PMS5003;41674;52.290;-1.474;2023-09-12T06:33:29;10;10;
55754;PMS5003;41674;52.290;-1.474;2023-09-12T06:35:59;10;10;
55754;PMS5003;41674;52.290;-1.474;2023-09-12T06:38:29;11;10;
55754;PMS5003;41674;52.290;-1.474;2023-09-12T06:40:57;11;9;
55754;PMS5003;41674;52.290;-1.474;2023-09-12T06:43:27;10;10;
55754;PMS5003;41674;52.290;-1.474;2023-09-12T06:45:56;8;7;
55754;PMS5003;41674;52.290;-1.474;2023-09-12T06:48:25;10;9;
55754;PMS5003;41674;52.290;-1.474;2023-09-12T06:50:55;8;8;
55754;PMS5003;41674;52.290;-1.474;2023-09-12T06:53:24;12;11;
55754;PMS5003;41674;52.290;-1.474;2023-09-12T06:55:54;13;12;
55754;PMS5003;41674;52.290;-1.474;2023-09-12T06:58:23;10;10;
55754;PMS5003;41674;52.290;-1.474;2023-09-12T07:00:53;11;8;
55754;PMS5003;41674;52.290;-1.474;2023-09-12T07:03:22;11;11;
55754;PMS5003;41674;52.290;-1.474;2023-09-12T07:05:52;10;10;
55754;PMS5003;41674;52.290;-1.474;2023-09-12T07:08:21;11;11;
55754;PMS5003;41674;52.290;-1.474;2023-09-12T07:10:51;13;12;
55754;PMS5003;41674;52.290;-1.474;2023-09-12T07:13:20;11;10;
55754;PMS5003;41674;52.290;-1.474;2023-09-12T07:15:49;14;13;
55754;PMS5003;41674;52.290;-1.474;2023-09-12T07:18:19;11;10;
55754;PMS5003;41674;52.290;-1.474;2023-09-12T07:23:17;11;11;
55754;PMS5003;41674;52.290;-1.474;2023-09-12T07:25:47;12;10;
55754;PMS5003;41674;52.290;-1.474;2023-09-12T07:28:16;12;10;
55754;PMS5003;41674;52.290;-1.474;2023-09-12T07:30:46;12;11;
55754;PMS5003;41674;52.290;-1.474;2023-09-12T07:33:16;12;9;
55754;PMS5003;41674;52.290;-1.474;2023-09-12T07:35:45;13;8;
55754;PMS5003;41674;52.290;-1.474;2023-09-12T07:38:14;9;9;
55754;PMS5003;41674;52.290;-1.474;2023-09-12T07:40:44;11;9;
55754;PMS5003;41674;52.290;-1.474;2023-09-12T07:43:13;9;8;
55754;PMS5003;41674;52.290;-1.474;2023-09-12T07:45:43;11;10;
55754;PMS5003;41674;52.290;-1.474;2023-09-12T07:48:12;10;8;
55754;PMS5003;41674;52.290;-1.474;2023-09-12T07:50:42;11;8;
55754;PMS5003;41674;52.290;-1.474;2023-09-12T07:53:12;7;7;
55754;PMS5003;41674;52.290;-1.474;2023-09-12T07:55:41;9;8;
55754;PMS5003;41674;52.290;-1.474;2023-09-12T07:58:11;11;10;
55754;PMS5003;41674;52.290;-1.474;2023-09-12T08:00:40;11;10;
55754;PMS5003;41674;52.290;-1.474;2023-09-12T08:03:09;11;11;
55754;PMS5003;41674;52.290;-1.474;2023-09-12T08:05:39;7;7;
55754;PMS5003;41674;52.290;-1.474;2023-09-12T08:08:08;12;10;
55754;PMS5003;41674;52.290;-1.474;2023-09-12T08:10:38;11;11;
55754;PMS5003;41674;52.290;-1.474;2023-09-12T08:13:07;8;8;
55754;PMS5003;41674;52.290;-1.474;2023-09-12T08:18:06;11;9;
55754;PMS5003;41674;52.290;-1.474;2023-09-12T08:20:36;9;7;
55754;PMS5003;41674;52.290;-1.474;2023-09-12T08:23:05;7;7;
55754;PMS5003;41674;52.290;-1.474;2023-09-12T08:25:34;8;8;
55754;PMS5003;41674;52.290;-1.474;2023-09-12T08:28:04;8;8;
55754;PMS5003;41674;52.290;-1.474;2023-09-12T08:30:34;10;10;
55754;PMS5003;41674;52.290;-1.474;2023-09-12T08:33:03;8;7;
55754;PMS5003;41674;52.290;-1.474;2023-09-12T08:38:02;8;7;
55754;PMS5003;41674;52.290;-1.474;2023-09-12T08:40:32;7;7;
55754;PMS5003;41674;52.290;-1.474;2023-09-12T08:43:01;8;8;
55754;PMS5003;41674;52.290;-1.474;2023-09-12T08:45:31;10;8;
55754;PMS5003;41674;52.290;-1.474;2023-09-12T08:48:00;9;8;
55754;PMS5003;41674;52.290;-1.474;2023-09-12T08:50:30;9;7;
55754;PMS5003;41674;52.290;-1.474;2023-09-12T08:52:59;6;6;
55754;PMS5003;41674;52.290;-1.474;2023-09-12T08:55:29;6;6;
55754;PMS5003;41674;52.290;-1.474;2023-09-12T08:57:58;9;6;
55754;PMS5003;41674;52.290;-1.474;2023-09-12T09:00:28;7;7;
55754;PMS5003;41674;52.290;-1.474;2023-09-12T09:02:57;8;8;
55754;PMS5003;41674;52.290;-1.474;2023-09-12T09:05:27;7;7;
55754;PMS5003;41674;52.290;-1.474;2023-09-12T09:07:56;10;9;
55754;PMS5003;41674;52.290;-1.474;2023-09-12T09:10:26;8;8;
55754;PMS5003;41674;52.290;-1.474;2023-09-12T09:12:55;10;10;
55754;PMS5003;41674;52.290;-1.474;2023-09-12T09:15:26;7;7;
55754;PMS5003;41674;52.290;-1.474;2023-09-12T09:17:57;8;8;
55754;PMS5003;41674;52.290;-1.474;2023-09-12T09:20:25;6;6;
55754;PMS5003;41674;52.290;-1.474;2023-09-12T09:22:57;9;8;
55754;PMS5003;41674;52.290;-1.474;2023-09-12T09:25:23;5;5;
55754;PMS5003;41674;52.290;-1.474;2023-09-12T09:27:53;8;7;
55754;PMS5003;41674;52.290;-1.474;2023-09-12T09:32:53;10;7;
55754;PMS5003;41674;52.290;-1.474;2023-09-12T09:35:21;10;9;
55754;PMS5003;41674;52.290;-1.474;2023-09-12T09:37:51;7;7;
55754;PMS5003;41674;52.290;-1.474;2023-09-12T09:40:21;7;5;
55754;PMS5003;41674;52.290;-1.474;2023-09-12T09:42:53;7;6;
55754;PMS5003;41674;52.290;-1.474;2023-09-12T09:45:19;7;6;
55754;PMS5003;41674;52.290;-1.474;2023-09-12T09:47:49;7;6;
55754;PMS5003;41674;52.290;-1.474;2023-09-12T09:50:19;4;4;
55754;PMS5003;41674;52.290;-1.474;2023-09-12T09:52:50;5;5;
55754;PMS5003;41674;52.290;-1.474;2023-09-12T09:55:19;8;7;
55754;PMS5003;41674;52.290;-1.474;2023-09-12T09:57:47;6;6;
55754;PMS5003;41674;52.290;-1.474;2023-09-12T10:00:17;6;6;
55754;PMS5003;41674;52.290;-1.474;2023-09-12T10:02:46;4;4;
55754;PMS5003;41674;52.290;-1.474;2023-09-12T10:05:16;13;9;
55754;PMS5003;41674;52.290;-1.474;2023-09-12T10:07:47;9;8;
55754;PMS5003;41674;52.290;-1.474;2023-09-12T10:10:15;10;8;
55754;PMS5003;41674;52.290;-1.474;2023-09-12T10:12:48;7;7;
55754;PMS5003;41674;52.290;-1.474;2023-09-12T10:15:13;9;6;
55754;PMS5003;41674;52.290;-1.474;2023-09-12T10:17:43;8;7;
55754;PMS5003;41674;52.290;-1.474;2023-09-12T10:20:14;9;9;
55754;PMS5003;41674;52.290;-1.474;2023-09-12T10:22:43;7;7;
55754;PMS5003;41674;52.290;-1.474;2023-09-12T10:25:12;7;5;
55754;PMS5003;41674;52.290;-1.474;2023-09-12T10:30:11;4;4;
55754;PMS5003;41674;52.290;-1.474;2023-09-12T10:32:40;5;5;
55754;PMS5003;41674;52.290;-1.474;2023-09-12T10:35:10;4;4;
55754;PMS5003;41674;52.290;-1.474;2023-09-12T10:37:40;4;4;
55754;PMS5003;41674;52.290;-1.474;2023-09-12T10:40:09;3;3;
55754;PMS5003;41674;52.290;-1.474;2023-09-12T10:42:39;5;5;
55754;PMS5003;41674;52.290;-1.474;2023-09-12T10:45:08;4;4;
55754;PMS5003;41674;52.290;-1.474;2023-09-12T10:47:37;7;3;
55754;PMS5003;41674;52.290;-1.474;2023-09-12T10:50:07;5;5;
55754;PMS5003;41674;52.290;-1.474;2023-09-12T10:52:36;4;4;
55754;PMS5003;41674;52.290;-1.474;2023-09-12T10:55:06;6;6;
55754;PMS5003;41674;52.290;-1.474;2023-09-12T11:00:10;9;8;
55754;PMS5003;41674;52.290;-1.474;2023-09-12T11:02:35;7;6;
55754;PMS5003;41674;52.290;-1.474;2023-09-12T11:05:04;10;10;
55754;PMS5003;41674;52.290;-1.474;2023-09-12T11:07:43;6;6;
55754;PMS5003;41674;52.290;-1.474;2023-09-12T11:10:16;9;8;
55754;PMS5003;41674;52.290;-1.474;2023-09-12T11:12:34;8;8;
55754;PMS5003;41674;52.290;-1.474;2023-09-12T11:15:03;7;6;
55754;PMS5003;41674;52.290;-1.474;2023-09-12T11:17:34;5;5;
55754;PMS5003;41674;52.290;-1.474;2023-09-12T11:20:02;5;4;
55754;PMS5003;41674;52.290;-1.474;2023-09-12T11:22:31;4;4;
55754;PMS5003;41674;52.290;-1.474;2023-09-12T11:25:01;5;4;
55754;PMS5003;41674;52.290;-1.474;2023-09-12T11:27:31;8;7;
55754;PMS5003;41674;52.290;-1.474;2023-09-12T11:30:05;5;4;
55754;PMS5003;41674;52.290;-1.474;2023-09-12T11:32:30;5;5;
55754;PMS5003;41674;52.290;-1.474;2023-09-12T11:34:59;4;4;
55754;PMS5003;41674;52.290;-1.474;2023-09-12T11:37:28;4;3;
55754;PMS5003;41674;52.290;-1.474;2023-09-12T11:39:57;3;3;
55754;PMS5003;41674;52.290;-1.474;2023-09-12T11:42:27;6;3;
55754;PMS5003;41674;52.290;-1.474;2023-09-12T11:44:56;5;4;
55754;PMS5003;41674;52.290;-1.474;2023-09-12T11:47:26;6;4;
55754;PMS5003;41674;52.290;-1.474;2023-09-12T11:49:55;4;4;
55754;PMS5003;41674;52.290;-1.474;2023-09-12T11:52:25;1;1;
55754;PMS5003;41674;52.290;-1.474;2023-09-12T11:54:54;4;3;
55754;PMS5003;41674;52.290;-1.474;2023-09-12T11:57:24;2;2;
55754;PMS5003;41674;52.290;-1.474;2023-09-12T11:59:53;2;2;
55754;PMS5003;41674;52.290;-1.474;2023-09-12T12:02:23;6;4;
55754;PMS5003;41674;52.290;-1.474;2023-09-12T12:04:52;3;3;
55754;PMS5003;41674;52.290;-1.474;2023-09-12T12:07:22;5;3;
55754;PMS5003;41674;52.290;-1.474;2023-09-12T12:09:51;4;4;
55754;PMS5003;41674;52.290;-1.474;2023-09-12T12:12:21;5;4;
55754;PMS5003;41674;52.290;-1.474;2023-09-12T12:14:50;4;3;
55754;PMS5003;41674;52.290;-1.474;2023-09-12T12:17:20;3;3;
55754;PMS5003;41674;52.290;-1.474;2023-09-12T12:19:49;0;0;
55754;PMS5003;41674;52.290;-1.474;2023-09-12T12:22:19;2;2;
55754;PMS5003;41674;52.290;-1.474;2023-09-12T12:24:49;1;1;
55754;PMS5003;41674;52.290;-1.474;2023-09-12T12:27:18;1;1;
55754;PMS5003;41674;52.290;-1.474;2023-09-12T12:29:47;2;2;
55754;PMS5003;41674;52.290;-1.474;2023-09-12T12:32:17;1;1;
55754;PMS5003;41674;52.290;-1.474;2023-09-12T12:34:47;2;1;
55754;PMS5003;41674;52.290;-1.474;2023-09-12T12:37:16;2;2;
55754;PMS5003;41674;52.290;-1.474;2023-09-12T12:39:45;2;2;
55754;PMS5003;41674;52.290;-1.474;2023-09-12T12:42:15;3;2;
55754;PMS5003;41674;52.290;-1.474;2023-09-12T12:44:44;1;1;
55754;PMS5003;41674;52.290;-1.474;2023-09-12T12:47:14;1;1;
55754;PMS5003;41674;52.290;-1.474;2023-09-12T12:49:43;3;3;
55754;PMS5003;41674;52.290;-1.474;2023-09-12T12:52:13;3;3;
55754;PMS5003;41674;52.290;-1.474;2023-09-12T12:54:42;1;1;
55754;PMS5003;41674;52.290;-1.474;2023-09-12T12:57:12;0;0;
55754;PMS5003;41674;52.290;-1.474;2023-09-12T12:59:44;1;1;
55754;PMS5003;41674;52.290;-1.474;2023-09-12T13:02:11;1;1;
55754;PMS5003;41674;52.290;-1.474;2023-09-12T13:04:40;1;1;
55754;PMS5003;41674;52.290;-1.474;2023-09-12T13:07:10;0;0;
55754;PMS5003;41674;52.290;-1.474;2023-09-12T13:09:39;1;1;
55754;PMS5003;41674;52.290;-1.474;2023-09-12T13:12:09;0;0;
55754;PMS5003;41674;52.290;-1.474;2023-09-12T13:14:39;0;0;
55754;PMS5003;41674;52.290;-1.474;2023-09-12T13:17:08;0;0;
55754;PMS5003;41674;52.290;-1.474;2023-09-12T13:19:37;2;2;
55754;PMS5003;41674;52.290;-1.474;2023-09-12T13:22:07;1;1;
55754;PMS5003;41674;52.290;-1.474;2023-09-12T13:24:36;1;0;
55754;PMS5003;41674;52.290;-1.474;2023-09-12T13:27:06;4;2;
55754;PMS5003;41674;52.290;-1.474;2023-09-12T13:29:35;2;2;
55754;PMS5003;41674;52.290;-1.474;2023-09-12T13:32:05;2;2;
55754;PMS5003;41674;52.290;-1.474;2023-09-12T13:34:34;0;0;
55754;PMS5003;41674;52.290;-1.474;2023-09-12T13:37:04;3;2;
55754;PMS5003;41674;52.290;-1.474;2023-09-12T13:39:33;2;2;
55754;PMS5003;41674;52.290;-1.474;2023-09-12T13:42:05;2;2;
55754;PMS5003;41674;52.290;-1.474;2023-09-12T13:44:32;2;2;
55754;PMS5003;41674;52.290;-1.474;2023-09-12T13:47:02;2;2;
55754;PMS5003;41674;52.290;-1.474;2023-09-12T13:49:31;1;1;
55754;PMS5003;41674;52.290;-1.474;2023-09-12T13:52:01;2;2;
55754;PMS5003;41674;52.290;-1.474;2023-09-12T13:54:31;2;2;
55754;PMS5003;41674;52.290;-1.474;2023-09-12T13:57:00;3;3;
55754;PMS5003;41674;52.290;-1.474;2023-09-12T13:59:30;2;2;
55754;PMS5003;41674;52.290;-1.474;2023-09-12T14:01:59;0;0;
55754;PMS5003;41674;52.290;-1.474;2023-09-12T14:04:29;2;2;
55754;PMS5003;41674;52.290;-1.474;2023-09-12T14:06:58;1;1;
55754;PMS5003;41674;52.290;-1.474;2023-09-12T14:09:28;2;2;
55754;PMS5003;41674;52.290;-1.474;2023-09-12T14:11:57;2;2;
55754;PMS5003;41674;52.290;-1.474;2023-09-12T14:14:27;3;2;
55754;PMS5003;41674;52.290;-1.474;2023-09-12T14:16:56;3;3;
55754;PMS5003;41674;52.290;-1.474;2023-09-12T14:19:26;3;3;
55754;PMS5003;41674;52.290;-1.474;2023-09-12T14:21:55;2;2;
55754;PMS5003;41674;52.290;-1.474;2023-09-12T14:24:25;2;2;
55754;PMS5003;41674;52.290;-1.474;2023-09-12T14:26:54;2;2;
55754;PMS5003;41674;52.290;-1.474;2023-09-12T14:29:24;1;1;
55754;PMS5003;41674;52.290;-1.474;2023-09-12T14:31:53;3;3;
55754;PMS5003;41674;52.290;-1.474;2023-09-12T14:34:23;4;2;
55754;PMS5003;41674;52.290;-1.474;2023-09-12T14:36:53;2;2;
55754;PMS5003;41674;52.290;-1.474;2023-09-12T14:39:22;2;2;
55754;PMS5003;41674;52.290;-1.474;2023-09-12T14:41:51;2;1;
55754;PMS5003;41674;52.290;-1.474;2023-09-12T14:44:21;2;2;
55754;PMS5003;41674;52.290;-1.474;2023-09-12T14:46:50;1;1;
55754;PMS5003;41674;52.290;-1.474;2023-09-12T14:49:20;2;2;
55754;PMS5003;41674;52.290;-1.474;2023-09-12T14:51:49;2;2;
55754;PMS5003;41674;52.290;-1.474;2023-09-12T14:54:19;2;2;
55754;PMS5003;41674;52.290;-1.474;2023-09-12T14:56:49;1;1;
55754;PMS5003;41674;52.290;-1.474;2023-09-12T14:59:18;1;1;
55754;PMS5003;41674;52.290;-1.474;2023-09-12T15:01:48;1;1;
55754;PMS5003;41674;52.290;-1.474;2023-09-12T15:04:17;0;0;
55754;PMS5003;41674;52.290;-1.474;2023-09-12T15:06:47;0;0;
55754;PMS5003;41674;52.290;-1.474;2023-09-12T15:09:16;1;1;
55754;PMS5003;41674;52.290;-1.474;2023-09-12T15:11:46;1;1;
55754;PMS5003;41674;52.290;-1.474;2023-09-12T15:14:15;1;1;
55754;PMS5003;41674;52.290;-1.474;2023-09-12T15:16:45;2;2;
55754;PMS5003;41674;52.290;-1.474;2023-09-12T15:19:14;2;1;
55754;PMS5003;41674;52.290;-1.474;2023-09-12T15:21:44;1;1;
55754;PMS5003;41674;52.290;-1.474;2023-09-12T15:24:13;2;2;
55754;PMS5003;41674;52.290;-1.474;2023-09-12T15:26:43;0;0;
55754;PMS5003;41674;52.290;-1.474;2023-09-12T15:29:12;0;0;
55754;PMS5003;41674;52.290;-1.474;2023-09-12T15:31:42;2;1;
55754;PMS5003;41674;52.290;-1.474;2023-09-12T15:34:11;0;0;
55754;PMS5003;41674;52.290;-1.474;2023-09-12T15:39:11;1;1;
55754;PMS5003;41674;52.290;-1.474;2023-09-12T15:41:41;1;1;
55754;PMS5003;41674;52.290;-1.474;2023-09-12T15:44:10;1;1;
55754;PMS5003;41674;52.290;-1.474;2023-09-12T15:46:39;0;0;
55754;PMS5003;41674;52.290;-1.474;2023-09-12T15:49:09;1;1;
55754;PMS5003;41674;52.290;-1.474;2023-09-12T15:51:38;1;1;
55754;PMS5003;41674;52.290;-1.474;2023-09-12T15:54:08;2;2;
55754;PMS5003;41674;52.290;-1.474;2023-09-12T15:56:37;2;2;
55754;PMS5003;41674;52.290;-1.474;2023-09-12T15:59:07;1;1;
55754;PMS5003;41674;52.290;-1.474;2023-09-12T16:01:36;1;1;
55754;PMS5003;41674;52.290;-1.474;2023-09-12T16:04:06;2;2;
55754;PMS5003;41674;52.290;-1.474;2023-09-12T16:06:35;2;2;
55754;PMS5003;41674;52.290;-1.474;2023-09-12T16:09:05;1;1;
55754;PMS5003;41674;52.290;-1.474;2023-09-12T16:11:35;1;1;
55754;PMS5003;41674;52.290;-1.474;2023-09-12T16:14:04;1;1;
55754;PMS5003;41674;52.290;-1.474;2023-09-12T16:16:34;2;2;
55754;PMS5003;41674;52.290;-1.474;2023-09-12T16:19:03;2;1;
55754;PMS5003;41674;52.290;-1.474;2023-09-12T16:21:33;2;2;
55754;PMS5003;41674;52.290;-1.474;2023-09-12T16:24:04;3;3;
55754;PMS5003;41674;52.290;-1.474;2023-09-12T16:26:32;0;0;
55754;PMS5003;41674;52.290;-1.474;2023-09-12T16:29:01;1;1;
55754;PMS5003;41674;52.290;-1.474;2023-09-12T16:31:31;1;1;
55754;PMS5003;41674;52.290;-1.474;2023-09-12T16:34:00;1;1;
55754;PMS5003;41674;52.290;-1.474;2023-09-12T16:36:31;1;1;
55754;PMS5003;41674;52.290;-1.474;2023-09-12T16:39:00;0;0;
55754;PMS5003;41674;52.290;-1.474;2023-09-12T16:41:30;2;2;
55754;PMS5003;41674;52.290;-1.474;2023-09-12T16:43:59;2;2;
55754;PMS5003;41674;52.290;-1.474;2023-09-12T16:46:28;2;2;
55754;PMS5003;41674;52.290;-1.474;2023-09-12T16:48:58;3;3;
55754;PMS5003;41674;52.290;-1.474;2023-09-12T16:51:27;1;1;
55754;PMS5003;41674;52.290;-1.474;2023-09-12T16:53:57;1;1;
55754;PMS5003;41674;52.290;-1.474;2023-09-12T16:56:26;2;2;
55754;PMS5003;41674;52.290;-1.474;2023-09-12T16:58:56;2;1;
55754;PMS5003;41674;52.290;-1.474;2023-09-12T17:01:25;1;1;
55754;PMS5003;41674;52.290;-1.474;2023-09-12T17:03:57;1;1;
55754;PMS5003;41674;52.290;-1.474;2023-09-12T17:06:25;2;2;
55754;PMS5003;41674;52.290;-1.474;2023-09-12T17:08:54;1;1;
55754;PMS5003;41674;52.290;-1.474;2023-09-12T17:11:24;1;1;